sensor_id;sensor_type;location;lat;lon;timestamp;P1;P2;P0
80289;PMS7003;69592;44.804;-0.550;2023-07-22T00:02:16;5.00;4.00;2.00
80289;PMS7003;69592;44.804;-0.550;2023-07-22T00:04:41;4.33;4.33;3.00
80289;PMS7003;69592;44.804;-0.550;2023-07-22T00:07:06;4.00;4.00;3.00
80289;PMS7003;69592;44.804;-0.550;2023-07-22T00:09:32;4.00;4.00;3.00
80289;PMS7003;69592;44.804;-0.550;2023-07-22T00:11:59;5.00;5.00;4.33
80289;PMS7003;69592;44.804;-0.550;2023-07-22T00:14:24;8.67;6.33;4.00
80289;PMS7003;69592;44.804;-0.550;2023-07-22T00:16:50;5.00;5.00;4.00
80289;PMS7003;69592;44.804;-0.550;2023-07-22T00:19:15;6.00;5.00;4.00
80289;PMS7003;69592;44.804;-0.550;2023-07-22T00:21:40;3.33;3.33;2.33
80289;PMS7003;69592;44.804;-0.550;2023-07-22T00:24:06;3.67;3.67;2.33
80289;PMS7003;69592;44.804;-0.550;2023-07-22T00:26:31;5.00;5.00;3.00
80289;PMS7003;69592;44.804;-0.550;2023-07-22T00:28:56;5.33;5.00;4.00
80289;PMS7003;69592;44.804;-0.550;2023-07-22T00:31:22;4.33;4.33;3.33
80289;PMS7003;69592;44.804;-0.550;2023-07-22T00:33:47;5.00;5.00;3.67
80289;PMS7003;69592;44.804;-0.550;2023-07-22T00:36:12;4.00;4.00;4.00
80289;PMS7003;69592;44.804;-0.550;2023-07-22T00:38:38;7.67;5.00;3.67
80289;PMS7003;69592;44.804;-0.550;2023-07-22T00:41:04;6.33;4.00;3.00
80289;PMS7003;69592;44.804;-0.550;2023-07-22T00:43:30;4.67;4.67;3.00
80289;PMS7003;69592;44.804;-0.550;2023-07-22T00:45:56;6.00;5.00;4.00
80289;PMS7003;69592;44.804;-0.550;2023-07-22T00:48:22;6.33;4.00;3.00
80289;PMS7003;69592;44.804;-0.550;2023-07-22T00:50:47;6.00;5.00;3.00
80289;PMS7003;69592;44.804;-0.550;2023-07-22T00:53:13;5.67;5.00;4.67
80289;PMS7003;69592;44.804;-0.550;2023-07-22T00:55:39;5.00;5.00;3.00
80289;PMS7003;69592;44.804;-0.550;2023-07-22T00:58:07;4.00;4.00;3.00
80289;PMS7003;69592;44.804;-0.550;2023-07-22T01:00:33;4.67;4.67;4.00
80289;PMS7003;69592;44.804;-0.550;2023-07-22T01:02:58;5.00;5.00;4.00
80289;PMS7003;69592;44.804;-0.550;2023-07-22T01:05:25;6.67;6.67;4.33
80289;PMS7003;69592;44.804;-0.550;2023-07-22T01:07:52;4.00;4.00;3.00
80289;PMS7003;69592;44.804;-0.550;2023-07-22T01:10:18;5.33;5.00;4.00
80289;PMS7003;69592;44.804;-0.550;2023-07-22T01:12:45;6.00;5.00;3.67
80289;PMS7003;69592;44.804;-0.550;2023-07-22T01:15:10;6.00;4.67;3.33
80289;PMS7003;69592;44.804;-0.550;2023-07-22T01:17:36;3.67;3.67;3.00
80289;PMS7003;69592;44.804;-0.550;2023-07-22T01:20:02;5.67;4.33;3.00
80289;PMS7003;69592;44.804;-0.550;2023-07-22T01:22:28;4.33;4.33;3.00
80289;PMS7003;69592;44.804;-0.550;2023-07-22T01:24:54;4.00;4.00;3.00
80289;PMS7003;69592;44.804;-0.550;2023-07-22T01:27:21;4.33;4.33;3.33
80289;PMS7003;69592;44.804;-0.550;2023-07-22T01:29:46;6.00;6.00;4.67
80289;PMS7003;69592;44.804;-0.550;2023-07-22T01:32:14;5.67;4.67;3.67
80289;PMS7003;69592;44.804;-0.550;2023-07-22T01:34:40;6.67;6.67;4.00
80289;PMS7003;69592;44.804;-0.550;2023-07-22T01:37:06;6.33;6.33;5.00
80289;PMS7003;69592;44.804;-0.550;2023-07-22T01:39:32;5.33;5.33;5.00
80289;PMS7003;69592;44.804;-0.550;2023-07-22T01:41:57;5.33;5.33;4.00
80289;PMS7003;69592;44.804;-0.550;2023-07-22T01:44:23;4.33;4.33;3.00
80289;PMS7003;69592;44.804;-0.550;2023-07-22T01:46:48;5.33;5.00;4.00
80289;PMS7003;69592;44.804;-0.550;2023-07-22T01:49:13;4.33;4.33;3.00
80289;PMS7003;69592;44.804;-0.550;2023-07-22T01:51:39;7.00;4.33;4.00
80289;PMS7003;69592;44.804;-0.550;2023-07-22T01:54:07;6.00;5.33;3.67
80289;PMS7003;69592;44.804;-0.550;2023-07-22T01:56:34;4.00;4.00;3.67
80289;PMS7003;69592;44.804;-0.550;2023-07-22T01:59:00;4.00;4.00;3.00
80289;PMS7003;69592;44.804;-0.550;2023-07-22T02:01:26;4.33;4.33;4.00
80289;PMS7003;69592;44.804;-0.550;2023-07-22T02:03:53;7.00;7.00;5.00
80289;PMS7003;69592;44.804;-0.550;2023-07-22T02:06:18;5.67;5.33;4.67
80289;PMS7003;69592;44.804;-0.550;2023-07-22T02:08:44;5.00;5.00;4.00
80289;PMS7003;69592;44.804;-0.550;2023-07-22T02:11:10;4.67;4.67;3.67
80289;PMS7003;69592;44.804;-0.550;2023-07-22T02:13:36;7.00;6.00;4.00
80289;PMS7003;69592;44.804;-0.550;2023-07-22T02:16:02;6.67;6.67;4.67
80289;PMS7003;69592;44.804;-0.550;2023-07-22T02:18:28;5.00;4.67;3.33
80289;PMS7003;69592;44.804;-0.550;2023-07-22T02:20:54;4.33;4.33;3.00
80289;PMS7003;69592;44.804;-0.550;2023-07-22T02:23:20;6.33;5.00;4.00
80289;PMS7003;69592;44.804;-0.550;2023-07-22T02:25:50;5.67;5.00;4.00
80289;PMS7003;69592;44.804;-0.550;2023-07-22T02:28:16;6.33;6.00;4.33
80289;PMS7003;69592;44.804;-0.550;2023-07-22T02:30:45;6.67;5.67;4.00
80289;PMS7003;69592;44.804;-0.550;2023-07-22T02:33:11;5.00;4.00;3.00
80289;PMS7003;69592;44.804;-0.550;2023-07-22T02:35:36;4.00;4.00;3.00
80289;PMS7003;69592;44.804;-0.550;2023-07-22T02:38:01;4.67;4.67;3.00
80289;PMS7003;69592;44.804;-0.550;2023-07-22T02:40:27;5.00;5.00;4.00
80289;PMS7003;69592;44.804;-0.550;2023-07-22T02:42:52;5.00;4.00;3.00
80289;PMS7003;69592;44.804;-0.550;2023-07-22T02:45:18;6.00;4.33;3.67
80289;PMS7003;69592;44.804;-0.550;2023-07-22T02:47:43;5.33;5.33;3.33
80289;PMS7003;69592;44.804;-0.550;2023-07-22T02:50:08;3.67;3.00;3.00
80289;PMS7003;69592;44.804;-0.550;2023-07-22T02:52:34;5.33;4.33;4.00
80289;PMS7003;69592;44.804;-0.550;2023-07-22T02:55:15;5.67;5.67;4.67
80289;PMS7003;69592;44.804;-0.550;2023-07-22T02:57:45;5.33;5.33;4.00
80289;PMS7003;69592;44.804;-0.550;2023-07-22T03:00:14;5.33;5.33;4.67
80289;PMS7003;69592;44.804;-0.550;2023-07-22T03:02:49;2.00;1.00;0.67
80289;PMS7003;69592;44.804;-0.550;2023-07-22T03:05:16;7.00;6.00;4.00
80289;PMS7003;69592;44.804;-0.550;2023-07-22T03:07:41;3.33;3.33;3.00
80289;PMS7003;69592;44.804;-0.550;2023-07-22T03:10:07;6.67;5.33;3.33
80289;PMS7003;69592;44.804;-0.550;2023-07-22T03:12:33;5.00;5.00;4.00
80289;PMS7003;69592;44.804;-0.550;2023-07-22T03:14:59;5.67;4.67;3.67
80289;PMS7003;69592;44.804;-0.550;2023-07-22T03:17:25;6.33;5.33;4.33
80289;PMS7003;69592;44.804;-0.550;2023-07-22T03:19:51;5.00;5.00;4.00
80289;PMS7003;69592;44.804;-0.550;2023-07-22T03:22:17;2.67;2.67;0.00
80289;PMS7003;69592;44.804;-0.550;2023-07-22T03:24:43;6.00;6.00;5.00
80289;PMS7003;69592;44.804;-0.550;2023-07-22T03:27:09;8.00;6.00;4.33
80289;PMS7003;69592;44.804;-0.550;2023-07-22T03:29:35;9.33;7.00;5.00
80289;PMS7003;69592;44.804;-0.550;2023-07-22T03:32:01;8.00;5.67;4.00
80289;PMS7003;69592;44.804;-0.550;2023-07-22T03:34:27;9.00;7.67;5.00
80289;PMS7003;69592;44.804;-0.550;2023-07-22T03:36:52;6.00;5.00;4.00
80289;PMS7003;69592;44.804;-0.550;2023-07-22T03:39:19;6.00;6.00;5.00
80289;PMS7003;69592;44.804;-0.550;2023-07-22T03:41:45;4.67;4.67;4.00
80289;PMS7003;69592;44.804;-0.550;2023-07-22T03:44:10;6.00;6.00;4.00
80289;PMS7003;69592;44.804;-0.550;2023-07-22T03:46:36;4.00;4.00;3.00
80289;PMS7003;69592;44.804;-0.550;2023-07-22T03:49:02;6.00;5.00;3.00
80289;PMS7003;69592;44.804;-0.550;2023-07-22T03:51:27;4.33;4.33;3.00
80289;PMS7003;69592;44.804;-0.550;2023-07-22T03:53:52;4.33;4.33;4.00
80289;PMS7003;69592;44.804;-0.550;2023-07-22T03:56:18;6.00;6.00;4.00
80289;PMS7003;69592;44.804;-0.550;2023-07-22T03:58:45;8.33;6.00;4.00
80289;PMS7003;69592;44.804;-0.550;2023-07-22T04:01:11;5.67;5.67;4.67
80289;PMS7003;69592;44.804;-0.550;2023-07-22T04:03:36;6.00;4.33;4.00
80289;PMS7003;69592;44.804;-0.550;2023-07-22T04:06:02;9.00;7.33;5.00
80289;PMS7003;69592;44.804;-0.550;2023-07-22T04:08:28;6.33;5.00;4.00
80289;PMS7003;69592;44.804;-0.550;2023-07-22T04:10:53;7.67;6.00;4.00
80289;PMS7003;69592;44.804;-0.550;2023-07-22T04:13:19;4.67;4.00;4.00
80289;PMS7003;69592;44.804;-0.550;2023-07-22T04:15:46;4.67;4.67;3.67
80289;PMS7003;69592;44.804;-0.550;2023-07-22T04:18:12;5.67;5.00;3.00
80289;PMS7003;69592;44.804;-0.550;2023-07-22T04:20:37;7.00;7.00;4.00
80289;PMS7003;69592;44.804;-0.550;2023-07-22T04:23:02;6.33;5.00;4.00
80289;PMS7003;69592;44.804;-0.550;2023-07-22T04:25:28;10.33;7.00;5.00
80289;PMS7003;69592;44.804;-0.550;2023-07-22T04:27:53;5.67;5.67;4.00
80289;PMS7003;69592;44.804;-0.550;2023-07-22T04:30:18;8.00;6.33;4.00
80289;PMS7003;69592;44.804;-0.550;2023-07-22T04:32:48;6.33;5.33;3.00
80289;PMS7003;69592;44.804;-0.550;2023-07-22T04:35:16;12.00;9.33;5.33
80289;PMS7003;69592;44.804;-0.550;2023-07-22T04:37:45;8.67;6.00;4.00
80289;PMS7003;69592;44.804;-0.550;2023-07-22T04:40:11;10.67;8.33;5.67
80289;PMS7003;69592;44.804;-0.550;2023-07-22T04:42:41;9.00;6.33;5.00
80289;PMS7003;69592;44.804;-0.550;2023-07-22T04:45:08;8.33;6.33;4.33
80289;PMS7003;69592;44.804;-0.550;2023-07-22T04:47:35;11.33;9.00;5.00
80289;PMS7003;69592;44.804;-0.550;2023-07-22T04:50:01;7.00;7.00;4.67
80289;PMS7003;69592;44.804;-0.550;2023-07-22T04:52:26;8.00;8.00;5.00
80289;PMS7003;69592;44.804;-0.550;2023-07-22T04:54:52;10.00;9.00;4.67
80289;PMS7003;69592;44.804;-0.550;2023-07-22T04:57:18;9.67;9.00;5.33
80289;PMS7003;69592;44.804;-0.550;2023-07-22T04:59:44;10.00;8.00;6.00
80289;PMS7003;69592;44.804;-0.550;2023-07-22T05:02:09;6.33;6.33;4.00
80289;PMS7003;69592;44.804;-0.550;2023-07-22T05:04:34;9.00;9.00;6.00
80289;PMS7003;69592;44.804;-0.550;2023-07-22T05:07:00;9.33;9.33;6.33
80289;PMS7003;69592;44.804;-0.550;2023-07-22T05:09:25;9.00;7.67;5.00
80289;PMS7003;69592;44.804;-0.550;2023-07-22T05:11:50;10.33;8.67;5.00
80289;PMS7003;69592;44.804;-0.550;2023-07-22T05:14:16;9.00;9.00;6.00
80289;PMS7003;69592;44.804;-0.550;2023-07-22T05:16:41;8.67;7.33;5.00
80289;PMS7003;69592;44.804;-0.550;2023-07-22T05:19:06;8.00;8.00;4.33
80289;PMS7003;69592;44.804;-0.550;2023-07-22T05:21:33;9.00;9.00;5.67
80289;PMS7003;69592;44.804;-0.550;2023-07-22T05:23:58;10.00;8.00;6.33
80289;PMS7003;69592;44.804;-0.550;2023-07-22T05:26:24;8.00;6.33;5.00
80289;PMS7003;69592;44.804;-0.550;2023-07-22T05:28:49;8.33;7.67;5.00
80289;PMS7003;69592;44.804;-0.550;2023-07-22T05:31:15;9.33;8.67;6.33
80289;PMS7003;69592;44.804;-0.550;2023-07-22T05:33:41;8.00;8.00;5.00
80289;PMS7003;69592;44.804;-0.550;2023-07-22T05:36:06;10.33;9.67;8.00
80289;PMS7003;69592;44.804;-0.550;2023-07-22T05:38:32;8.33;8.00;5.00
80289;PMS7003;69592;44.804;-0.550;2023-07-22T05:40:57;9.00;8.00;5.00
80289;PMS7003;69592;44.804;-0.550;2023-07-22T05:43:23;11.00;9.67;6.33
80289;PMS7003;69592;44.804;-0.550;2023-07-22T05:45:48;10.67;9.00;5.00
80289;PMS7003;69592;44.804;-0.550;2023-07-22T05:48:14;9.33;8.33;5.33
80289;PMS7003;69592;44.804;-0.550;2023-07-22T05:50:39;9.00;8.67;6.33
80289;PMS7003;69592;44.804;-0.550;2023-07-22T05:53:04;9.33;9.33;6.33
80289;PMS7003;69592;44.804;-0.550;2023-07-22T05:55:30;9.67;8.33;5.00
80289;PMS7003;69592;44.804;-0.550;2023-07-22T05:57:56;9.33;9.33;6.00
80289;PMS7003;69592;44.804;-0.550;2023-07-22T06:00:22;13.33;11.00;8.00
80289;PMS7003;69592;44.804;-0.550;2023-07-22T06:02:47;9.33;9.33;8.00
80289;PMS7003;69592;44.804;-0.550;2023-07-22T06:05:13;8.67;8.67;6.00
80289;PMS7003;69592;44.804;-0.550;2023-07-22T06:07:39;9.00;9.00;6.00
80289;PMS7003;69592;44.804;-0.550;2023-07-22T06:10:04;12.00;12.00;8.67
80289;PMS7003;69592;44.804;-0.550;2023-07-22T06:12:31;10.67;10.33;6.00
80289;PMS7003;69592;44.804;-0.550;2023-07-22T06:14:56;10.00;10.00;6.00
80289;PMS7003;69592;44.804;-0.550;2023-07-22T06:17:22;13.33;11.00;8.00
80289;PMS7003;69592;44.804;-0.550;2023-07-22T06:19:48;9.00;9.00;6.00
80289;PMS7003;69592;44.804;-0.550;2023-07-22T06:22:13;9.33;6.67;6.00
80289;PMS7003;69592;44.804;-0.550;2023-07-22T06:24:38;9.00;8.00;5.00
80289;PMS7003;69592;44.804;-0.550;2023-07-22T06:27:04;11.67;11.67;6.67
80289;PMS7003;69592;44.804;-0.550;2023-07-22T06:29:29;9.33;8.00;5.33
80289;PMS7003;69592;44.804;-0.550;2023-07-22T06:31:54;10.67;9.00;6.00
80289;PMS7003;69592;44.804;-0.550;2023-07-22T06:34:20;10.67;10.00;7.00
80289;PMS7003;69592;44.804;-0.550;2023-07-22T06:36:45;10.33;10.33;7.33
80289;PMS7003;69592;44.804;-0.550;2023-07-22T06:39:10;11.00;9.67;7.33
80289;PMS7003;69592;44.804;-0.550;2023-07-22T06:41:36;11.33;10.67;6.33
80289;PMS7003;69592;44.804;-0.550;2023-07-22T06:44:01;11.00;10.33;7.00
80289;PMS7003;69592;44.804;-0.550;2023-07-22T06:46:26;12.67;11.67;7.00
80289;PMS7003;69592;44.804;-0.550;2023-07-22T06:48:52;10.67;9.33;6.00
80289;PMS7003;69592;44.804;-0.550;2023-07-22T06:51:17;11.67;11.67;6.00
80289;PMS7003;69592;44.804;-0.550;2023-07-22T06:53:42;13.00;12.00;8.67
80289;PMS7003;69592;44.804;-0.550;2023-07-22T06:56:08;14.00;10.00;6.67
80289;PMS7003;69592;44.804;-0.550;2023-07-22T06:58:33;11.00;9.00;7.00
80289;PMS7003;69592;44.804;-0.550;2023-07-22T07:00:58;9.33;8.00;6.00
80289;PMS7003;69592;44.804;-0.550;2023-07-22T07:03:24;11.33;8.00;6.33
80289;PMS7003;69592;44.804;-0.550;2023-07-22T07:05:53;9.67;9.33;5.33
80289;PMS7003;69592;44.804;-0.550;2023-07-22T07:08:19;10.33;8.00;6.00
80289;PMS7003;69592;44.804;-0.550;2023-07-22T07:10:44;8.00;8.00;6.00
80289;PMS7003;69592;44.804;-0.550;2023-07-22T07:13:10;13.00;9.67;6.00
80289;PMS7003;69592;44.804;-0.550;2023-07-22T07:15:35;11.67;10.00;7.00
80289;PMS7003;69592;44.804;-0.550;2023-07-22T07:18:01;13.00;13.00;7.33
80289;PMS7003;69592;44.804;-0.550;2023-07-22T07:20:26;11.67;10.67;7.33
80289;PMS7003;69592;44.804;-0.550;2023-07-22T07:22:52;18.67;16.00;9.00
80289;PMS7003;69592;44.804;-0.550;2023-07-22T07:25:17;11.33;11.33;8.00
80289;PMS7003;69592;44.804;-0.550;2023-07-22T07:27:42;11.00;7.67;4.33
80289;PMS7003;69592;44.804;-0.550;2023-07-22T07:30:08;6.67;6.67;5.00
80289;PMS7003;69592;44.804;-0.550;2023-07-22T07:32:34;8.00;8.00;6.00
80289;PMS7003;69592;44.804;-0.550;2023-07-22T07:35:00;6.33;6.33;5.00
80289;PMS7003;69592;44.804;-0.550;2023-07-22T07:37:26;11.00;10.33;6.67
80289;PMS7003;69592;44.804;-0.550;2023-07-22T07:39:51;9.00;8.00;6.00
80289;PMS7003;69592;44.804;-0.550;2023-07-22T07:42:17;8.67;7.33;5.67
80289;PMS7003;69592;44.804;-0.550;2023-07-22T07:44:42;5.67;5.67;4.00
80289;PMS7003;69592;44.804;-0.550;2023-07-22T07:47:07;7.00;6.00;5.33
80289;PMS7003;69592;44.804;-0.550;2023-07-22T07:49:33;5.33;5.33;4.33
80289;PMS7003;69592;44.804;-0.550;2023-07-22T07:51:59;8.00;5.33;4.00
80289;PMS7003;69592;44.804;-0.550;2023-07-22T07:54:24;6.00;5.00;4.33
80289;PMS7003;69592;44.804;-0.550;2023-07-22T07:56:49;5.00;5.00;4.33
80289;PMS7003;69592;44.804;-0.550;2023-07-22T07:59:15;8.00;7.33;5.33
80289;PMS7003;69592;44.804;-0.550;2023-07-22T08:01:40;7.33;3.33;3.00
80289;PMS7003;69592;44.804;-0.550;2023-07-22T08:04:07;6.00;6.00;4.67
80289;PMS7003;69592;44.804;-0.550;2023-07-22T08:06:33;7.33;6.33;4.00
80289;PMS7003;69592;44.804;-0.550;2023-07-22T08:08:59;6.00;6.00;5.00
80289;PMS7003;69592;44.804;-0.550;2023-07-22T08:11:24;6.00;6.00;4.67
80289;PMS7003;69592;44.804;-0.550;2023-07-22T08:13:50;6.00;6.00;4.00
80289;PMS7003;69592;44.804;-0.550;2023-07-22T08:16:16;4.00;4.00;4.00
80289;PMS7003;69592;44.804;-0.550;2023-07-22T08:18:42;7.00;6.00;5.00
80289;PMS7003;69592;44.804;-0.550;2023-07-22T08:21:08;3.00;3.00;2.00
80289;PMS7003;69592;44.804;-0.550;2023-07-22T08:23:33;5.00;5.00;3.00
80289;PMS7003;69592;44.804;-0.550;2023-07-22T08:25:59;3.67;3.00;2.00
80289;PMS7003;69592;44.804;-0.550;2023-07-22T08:28:25;6.00;5.00;4.00
80289;PMS7003;69592;44.804;-0.550;2023-07-22T08:30:53;5.33;3.00;3.00
80289;PMS7003;69592;44.804;-0.550;2023-07-22T08:33:20;4.00;4.00;2.00
80289;PMS7003;69592;44.804;-0.550;2023-07-22T08:35:45;5.33;4.33;3.00
80289;PMS7003;69592;44.804;-0.550;2023-07-22T08:38:13;6.67;6.67;5.00
80289;PMS7003;69592;44.804;-0.550;2023-07-22T08:40:39;5.33;5.33;4.00
80289;PMS7003;69592;44.804;-0.550;2023-07-22T08:43:06;7.67;7.67;4.67
80289;PMS7003;69592;44.804;-0.550;2023-07-22T08:45:34;6.00;5.00;3.33
80289;PMS7003;69592;44.804;-0.550;2023-07-22T08:48:07;5.00;5.00;4.00
80289;PMS7003;69592;44.804;-0.550;2023-07-22T08:50:37;5.00;5.00;4.00
80289;PMS7003;69592;44.804;-0.550;2023-07-22T08:53:09;4.33;4.00;4.00
80289;PMS7003;69592;44.804;-0.550;2023-07-22T08:55:35;5.00;5.00;4.00
80289;PMS7003;69592;44.804;-0.550;2023-07-22T08:58:02;6.67;5.67;4.00
80289;PMS7003;69592;44.804;-0.550;2023-07-22T09:00:28;5.00;5.00;4.00
80289;PMS7003;69592;44.804;-0.550;2023-07-22T09:02:54;3.67;3.67;2.33
80289;PMS7003;69592;44.804;-0.550;2023-07-22T09:05:20;8.33;5.00;4.67
80289;PMS7003;69592;44.804;-0.550;2023-07-22T09:07:47;5.00;5.00;4.00
80289;PMS7003;69592;44.804;-0.550;2023-07-22T09:10:13;6.00;5.00;4.00
80289;PMS7003;69592;44.804;-0.550;2023-07-22T09:12:40;4.33;4.33;3.67
80289;PMS7003;69592;44.804;-0.550;2023-07-22T09:15:10;5.00;5.00;4.67
80289;PMS7003;69592;44.804;-0.550;2023-07-22T09:17:38;6.33;5.00;4.67
80289;PMS7003;69592;44.804;-0.550;2023-07-22T09:20:06;6.00;5.00;4.00
80289;PMS7003;69592;44.804;-0.550;2023-07-22T09:22:33;4.00;4.00;3.00
80289;PMS7003;69592;44.804;-0.550;2023-07-22T09:25:16;5.00;5.00;3.75
80289;PMS7003;69592;44.804;-0.550;2023-07-22T09:27:52;7.67;7.00;5.00
80289;PMS7003;69592;44.804;-0.550;2023-07-22T09:33:25;4.25;4.25;3.50
80289;PMS7003;69592;44.804;-0.550;2023-07-22T09:35:52;4.25;3.50;3.00
80289;PMS7003;69592;44.804;-0.550;2023-07-22T09:38:24;3.50;3.25;2.25
80289;PMS7003;69592;44.804;-0.550;2023-07-22T09:40:50;2.50;2.50;1.50
80289;PMS7003;69592;44.804;-0.550;2023-07-22T09:43:16;3.00;3.00;2.50
80289;PMS7003;69592;44.804;-0.550;2023-07-22T09:45:41;6.00;3.00;3.00
80289;PMS7003;69592;44.804;-0.550;2023-07-22T09:48:12;4.75;3.00;2.75
80289;PMS7003;69592;44.804;-0.550;2023-07-22T09:50:37;2.50;1.50;1.50
80289;PMS7003;69592;44.804;-0.550;2023-07-22T09:53:03;2.50;2.50;1.50
80289;PMS7003;69592;44.804;-0.550;2023-07-22T09:55:30;2.00;2.00;1.50
80289;PMS7003;69592;44.804;-0.550;2023-07-22T09:58:01;3.50;3.50;2.75
80289;PMS7003;69592;44.804;-0.550;2023-07-22T10:00:30;2.50;2.50;2.00
80289;PMS7003;69592;44.804;-0.550;2023-07-22T10:02:57;1.50;1.50;1.00
80289;PMS7003;69592;44.804;-0.550;2023-07-22T10:05:25;3.00;3.00;2.25
80289;PMS7003;69592;44.804;-0.550;2023-07-22T10:07:51;3.25;3.25;2.25
80289;PMS7003;69592;44.804;-0.550;2023-07-22T10:10:19;1.50;1.50;1.50
80289;PMS7003;69592;44.804;-0.550;2023-07-22T10:12:47;2.75;2.75;1.75
80289;PMS7003;69592;44.804;-0.550;2023-07-22T10:15:13;4.25;3.00;1.75
80289;PMS7003;69592;44.804;-0.550;2023-07-22T10:17:41;2.75;2.75;2.50
80289;PMS7003;69592;44.804;-0.550;2023-07-22T10:20:10;3.60;3.60;2.20
80289;PMS7003;69592;44.804;-0.550;2023-07-22T10:22:43;1.80;1.80;1.00
80289;PMS7003;69592;44.804;-0.550;2023-07-22T10:25:14;3.00;2.75;1.00
80289;PMS7003;69592;44.804;-0.550;2023-07-22T10:27:41;3.50;2.00;1.75
80289;PMS7003;69592;44.804;-0.550;2023-07-22T10:30:07;1.00;1.00;1.00
80289;PMS7003;69592;44.804;-0.550;2023-07-22T10:35:03;2.00;2.00;2.00
80289;PMS7003;69592;44.804;-0.550;2023-07-22T10:37:30;3.25;3.25;2.25
80289;PMS7003;69592;44.804;-0.550;2023-07-22T10:40:02;2.40;2.40;2.20
80289;PMS7003;69592;44.804;-0.550;2023-07-22T10:43:05;2.00;2.00;1.20
80289;PMS7003;69592;44.804;-0.550;2023-07-22T10:45:32;2.50;2.50;1.75
80289;PMS7003;69592;44.804;-0.550;2023-07-22T10:48:02;2.00;2.00;2.00
80289;PMS7003;69592;44.804;-0.550;2023-07-22T10:53:12;1.80;1.80;1.00
80289;PMS7003;69592;44.804;-0.550;2023-07-22T11:06:28;2.00;2.00;2.00
80289;PMS7003;69592;44.804;-0.550;2023-07-22T11:08:55;3.50;2.00;2.00
80289;PMS7003;69592;44.804;-0.550;2023-07-22T11:11:20;1.20;1.20;1.00
80289;PMS7003;69592;44.804;-0.550;2023-07-22T11:13:46;4.25;3.00;2.00
80289;PMS7003;69592;44.804;-0.550;2023-07-22T11:16:11;2.00;2.00;2.00
80289;PMS7003;69592;44.804;-0.550;2023-07-22T11:18:40;2.00;2.00;2.00
80289;PMS7003;69592;44.804;-0.550;2023-07-22T11:21:07;2.00;2.00;1.00
80289;PMS7003;69592;44.804;-0.550;2023-07-22T11:23:34;2.80;2.80;2.80
80289;PMS7003;69592;44.804;-0.550;2023-07-22T11:26:00;2.50;2.50;2.00
80289;PMS7003;69592;44.804;-0.550;2023-07-22T11:28:27;3.00;3.00;2.00
80289;PMS7003;69592;44.804;-0.550;2023-07-22T11:30:52;1.60;1.60;1.00
80289;PMS7003;69592;44.804;-0.550;2023-07-22T11:33:18;2.75;2.75;1.75
80289;PMS7003;69592;44.804;-0.550;2023-07-22T11:35:44;1.75;1.75;1.75
80289;PMS7003;69592;44.804;-0.550;2023-07-22T11:38:11;2.00;2.00;2.00
80289;PMS7003;69592;44.804;-0.550;2023-07-22T11:40:37;2.40;2.40;2.00
80289;PMS7003;69592;44.804;-0.550;2023-07-22T11:43:02;3.00;3.00;2.50
80289;PMS7003;69592;44.804;-0.550;2023-07-22T11:45:28;2.00;1.00;1.00
80289;PMS7003;69592;44.804;-0.550;2023-07-22T11:47:53;1.00;1.00;1.00
80289;PMS7003;69592;44.804;-0.550;2023-07-22T11:50:19;1.50;1.50;1.25
80289;PMS7003;69592;44.804;-0.550;2023-07-22T11:52:57;0.00;0.00;0.00
80289;PMS7003;69592;44.804;-0.550;2023-07-22T11:55:23;2.00;2.00;2.00
80289;PMS7003;69592;44.804;-0.550;2023-07-22T11:57:52;3.40;2.80;2.40
80289;PMS7003;69592;44.804;-0.550;2023-07-22T12:00:18;3.00;3.00;2.20
80289;PMS7003;69592;44.804;-0.550;2023-07-22T12:02:44;2.00;2.00;2.00
80289;PMS7003;69592;44.804;-0.550;2023-07-22T12:05:09;4.00;2.75;2.00
80289;PMS7003;69592;44.804;-0.550;2023-07-22T12:07:36;3.25;3.25;2.25
80289;PMS7003;69592;44.804;-0.550;2023-07-22T12:10:03;2.00;2.00;1.00
80289;PMS7003;69592;44.804;-0.550;2023-07-22T12:12:32;1.80;1.80;1.60
80289;PMS7003;69592;44.804;-0.550;2023-07-22T12:15:21;1.00;1.00;1.00
80289;PMS7003;69592;44.804;-0.550;2023-07-22T12:17:50;2.00;2.00;1.40
80289;PMS7003;69592;44.804;-0.550;2023-07-22T12:20:18;1.20;1.20;1.00
80289;PMS7003;69592;44.804;-0.550;2023-07-22T12:22:43;2.00;2.00;2.00
80289;PMS7003;69592;44.804;-0.550;2023-07-22T12:25:09;3.00;3.00;2.50
80289;PMS7003;69592;44.804;-0.550;2023-07-22T12:27:36;4.75;3.00;2.00
80289;PMS7003;69592;44.804;-0.550;2023-07-22T12:30:02;1.20;1.20;1.00
80289;PMS7003;69592;44.804;-0.550;2023-07-22T12:32:28;2.00;2.00;1.75
80289;PMS7003;69592;44.804;-0.550;2023-07-22T12:34:53;3.00;3.00;2.00
80289;PMS7003;69592;44.804;-0.550;2023-07-22T12:37:19;3.00;3.00;3.00
80289;PMS7003;69592;44.804;-0.550;2023-07-22T12:39:45;3.00;3.00;2.75
80289;PMS7003;69592;44.804;-0.550;2023-07-22T12:42:10;2.20;2.20;2.00
80289;PMS7003;69592;44.804;-0.550;2023-07-22T12:44:36;3.00;3.00;2.00
80289;PMS7003;69592;44.804;-0.550;2023-07-22T12:47:01;2.75;2.25;1.75
80289;PMS7003;69592;44.804;-0.550;2023-07-22T12:49:27;2.00;2.00;2.00
80289;PMS7003;69592;44.804;-0.550;2023-07-22T12:51:52;2.75;2.25;2.00
80289;PMS7003;69592;44.804;-0.550;2023-07-22T12:54:17;2.50;2.50;2.00
80289;PMS7003;69592;44.804;-0.550;2023-07-22T12:56:43;2.00;2.00;2.00
80289;PMS7003;69592;44.804;-0.550;2023-07-22T12:59:08;3.25;3.25;2.25
80289;PMS7003;69592;44.804;-0.550;2023-07-22T13:01:33;3.00;3.00;3.00
80289;PMS7003;69592;44.804;-0.550;2023-07-22T13:04:01;2.00;2.00;1.60
80289;PMS7003;69592;44.804;-0.550;2023-07-22T13:06:26;2.50;2.50;2.25
80289;PMS7003;69592;44.804;-0.550;2023-07-22T13:08:51;2.00;2.00;1.00
80289;PMS7003;69592;44.804;-0.550;2023-07-22T13:11:17;2.00;2.00;2.00
80289;PMS7003;69592;44.804;-0.550;2023-07-22T13:13:42;4.50;2.00;2.00
80289;PMS7003;69592;44.804;-0.550;2023-07-22T13:16:07;3.00;3.00;2.00
80289;PMS7003;69592;44.804;-0.550;2023-07-22T13:18:33;4.00;2.75;2.00
80289;PMS7003;69592;44.804;-0.550;2023-07-22T13:20:58;2.50;2.00;2.00
80289;PMS7003;69592;44.804;-0.550;2023-07-22T13:23:24;3.00;3.00;3.00
80289;PMS7003;69592;44.804;-0.550;2023-07-22T13:25:49;3.00;2.00;2.00
80289;PMS7003;69592;44.804;-0.550;2023-07-22T13:28:14;2.75;2.75;2.25
80289;PMS7003;69592;44.804;-0.550;2023-07-22T13:30:40;3.00;2.75;2.00
80289;PMS7003;69592;44.804;-0.550;2023-07-22T13:33:05;3.00;3.00;2.00
80289;PMS7003;69592;44.804;-0.550;2023-07-22T13:35:31;5.00;3.25;3.00
80289;PMS7003;69592;44.804;-0.550;2023-07-22T13:37:56;2.00;2.00;2.00
80289;PMS7003;69592;44.804;-0.550;2023-07-22T13:40:22;2.00;2.00;2.00
80289;PMS7003;69592;44.804;-0.550;2023-07-22T13:42:47;4.00;3.00;2.00
80289;PMS7003;69592;44.804;-0.550;2023-07-22T13:45:13;3.00;3.00;3.00
80289;PMS7003;69592;44.804;-0.550;2023-07-22T13:47:38;2.00;2.00;1.25
80289;PMS7003;69592;44.804;-0.550;2023-07-22T13:50:04;3.00;3.00;2.00
80289;PMS7003;69592;44.804;-0.550;2023-07-22T13:52:29;2.40;2.40;1.80
80289;PMS7003;69592;44.804;-0.550;2023-07-22T13:54:55;3.00;3.00;2.00
80289;PMS7003;69592;44.804;-0.550;2023-07-22T13:57:20;2.50;2.50;2.00
80289;PMS7003;69592;44.804;-0.550;2023-07-22T13:59:45;2.50;2.50;2.00
80289;PMS7003;69592;44.804;-0.550;2023-07-22T14:02:11;4.00;4.00;2.75
80289;PMS7003;69592;44.804;-0.550;2023-07-22T14:04:36;3.75;3.75;3.00
80289;PMS7003;69592;44.804;-0.550;2023-07-22T14:07:01;2.75;2.75;2.00
80289;PMS7003;69592;44.804;-0.550;2023-07-22T14:09:27;3.00;3.00;2.00
80289;PMS7003;69592;44.804;-0.550;2023-07-22T14:11:52;3.75;3.75;3.00
80289;PMS7003;69592;44.804;-0.550;2023-07-22T14:14:18;3.50;3.50;2.00
80289;PMS7003;69592;44.804;-0.550;2023-07-22T14:16:43;3.75;2.75;2.00
80289;PMS7003;69592;44.804;-0.550;2023-07-22T14:19:09;3.50;3.00;2.00
80289;PMS7003;69592;44.804;-0.550;2023-07-22T14:21:34;1.25;1.25;1.00
80289;PMS7003;69592;44.804;-0.550;2023-07-22T14:23:59;3.00;3.00;2.00